createdAt,value
2023-05-21T00:01:07.925Z,19.64
2023-05-21T00:03:36.250Z,19.65
2023-05-21T00:06:03.914Z,19.64
2023-05-21T00:08:31.281Z,19.64
2023-05-21T00:10:58.253Z,19.63
2023-05-21T00:13:25.345Z,19.62
2023-05-21T00:15:52.335Z,19.63
2023-05-21T00:18:19.176Z,19.62
2023-05-21T00:20:45.992Z,19.63
2023-05-21T00:23:13.044Z,19.62
2023-05-21T00:25:39.945Z,19.61
2023-05-21T00:28:07.038Z,19.60
2023-05-21T00:30:33.766Z,19.61
2023-05-21T00:33:02.601Z,19.60
2023-05-21T00:35:29.576Z,19.59
2023-05-21T00:37:56.378Z,19.58
2023-05-21T00:40:23.488Z,19.59
2023-05-21T00:42:50.293Z,19.59
2023-05-21T00:45:17.178Z,19.59
2023-05-21T00:47:45.660Z,19.58
2023-05-21T00:50:14.935Z,19.57
2023-05-21T00:52:45.547Z,19.57
2023-05-21T00:55:12.516Z,19.56
2023-05-21T00:57:39.989Z,19.54
2023-05-21T01:00:08.886Z,19.53
2023-05-21T01:02:37.339Z,19.54
2023-05-21T01:05:06.185Z,19.54
2023-05-21T01:07:36.086Z,19.51
2023-05-21T01:10:04.991Z,19.51
2023-05-21T01:12:33.255Z,19.51
2023-05-21T01:15:04.422Z,19.51
2023-05-21T01:17:31.877Z,19.50
2023-05-21T01:19:59.418Z,19.51
2023-05-21T01:22:29.255Z,19.49
2023-05-21T01:24:55.946Z,19.50
2023-05-21T01:27:22.974Z,19.48
2023-05-21T01:29:50.369Z,19.48
2023-05-21T01:32:39.048Z,19.47
2023-05-21T01:35:14.513Z,19.48
2023-05-21T01:37:53.212Z,19.46
2023-05-21T01:40:39.353Z,19.46
2023-05-21T01:43:07.420Z,19.46
2023-05-21T01:45:38.973Z,19.45
2023-05-21T01:48:08.062Z,19.46
2023-05-21T01:50:37.372Z,19.44
2023-05-21T01:53:05.907Z,19.45
2023-05-21T01:55:33.483Z,19.43
2023-05-21T01:58:02.251Z,19.43
2023-05-21T02:00:29.730Z,19.42
2023-05-21T02:02:56.849Z,19.41
2023-05-21T02:05:23.844Z,19.41
2023-05-21T02:07:52.138Z,19.41
2023-05-21T02:10:19.377Z,19.40
2023-05-21T02:12:46.580Z,19.40
2023-05-21T02:15:14.490Z,19.44
2023-05-21T02:17:42.544Z,19.43
2023-05-21T02:20:12.220Z,19.41
2023-05-21T02:22:42.944Z,19.42
2023-05-21T02:25:10.868Z,19.39
2023-05-21T02:27:38.971Z,19.38
2023-05-21T02:30:08.435Z,19.36
2023-05-21T02:32:35.777Z,19.35
2023-05-21T02:35:04.366Z,19.34
2023-05-21T02:37:35.103Z,19.31
2023-05-21T02:40:04.372Z,19.32
2023-05-21T02:42:31.590Z,19.33
2023-05-21T02:44:58.434Z,19.30
2023-05-21T02:47:25.624Z,19.30
2023-05-21T02:49:54.160Z,19.29
2023-05-21T02:52:24.040Z,19.28
2023-05-21T02:54:52.504Z,19.28
2023-05-21T02:57:19.468Z,19.29
2023-05-21T02:59:46.245Z,19.26
2023-05-21T03:02:13.163Z,19.27
2023-05-21T03:04:46.027Z,19.26
2023-05-21T03:07:14.631Z,19.25
2023-05-21T03:09:42.521Z,19.24
2023-05-21T03:12:10.302Z,19.25
2023-05-21T03:14:39.998Z,19.24
2023-05-21T03:17:07.772Z,19.24
2023-05-21T03:19:36.032Z,19.23
2023-05-21T03:22:04.689Z,19.21
2023-05-21T03:24:35.242Z,19.22
2023-05-21T03:27:03.402Z,19.22
2023-05-21T03:29:30.813Z,19.21
2023-05-21T03:31:57.918Z,19.22
2023-05-21T03:34:25.019Z,19.19
2023-05-21T03:36:51.943Z,19.19
2023-05-21T03:39:19.961Z,19.19
2023-05-21T03:41:46.868Z,19.20
2023-05-21T03:44:22.044Z,19.19
2023-05-21T03:46:53.766Z,19.19
2023-05-21T03:49:24.441Z,19.18
2023-05-21T03:51:54.202Z,19.17
2023-05-21T03:54:21.591Z,19.16
2023-05-21T03:56:51.224Z,19.17
2023-05-21T03:59:19.137Z,19.16
2023-05-21T04:01:48.186Z,19.15
2023-05-21T04:04:17.197Z,19.15
2023-05-21T04:06:44.051Z,19.15
2023-05-21T04:09:12.429Z,19.14
2023-05-21T04:11:39.249Z,19.14
2023-05-21T04:14:06.331Z,19.13
2023-05-21T04:16:34.777Z,19.13
2023-05-21T04:19:01.678Z,19.11
2023-05-21T04:21:31.966Z,19.12
2023-05-21T04:24:00.904Z,19.12
2023-05-21T04:26:48.188Z,19.12
2023-05-21T04:29:21.400Z,19.11
2023-05-21T04:31:49.890Z,19.10
2023-05-21T04:34:18.038Z,19.10
2023-05-21T04:36:45.546Z,19.10
2023-05-21T04:39:14.223Z,19.08
2023-05-21T04:41:41.418Z,19.09
2023-05-21T04:44:08.873Z,19.08
2023-05-21T04:46:35.953Z,19.08
2023-05-21T04:49:03.113Z,19.07
2023-05-21T04:51:31.163Z,19.07
2023-05-21T04:53:58.662Z,19.07
2023-05-21T04:56:27.026Z,19.05
2023-05-21T04:58:54.445Z,19.07
2023-05-21T05:01:29.674Z,19.07
2023-05-21T05:03:56.853Z,19.06
2023-05-21T05:06:25.974Z,19.05
2023-05-21T05:08:52.828Z,19.06
2023-05-21T05:11:21.190Z,19.07
2023-05-21T05:13:47.880Z,19.05
2023-05-21T05:16:17.486Z,19.05
2023-05-21T05:18:44.315Z,19.05
2023-05-21T05:21:11.842Z,19.05
2023-05-21T05:23:38.553Z,19.05
2023-05-21T05:26:07.546Z,19.04
2023-05-21T05:28:34.622Z,19.05
2023-05-21T05:31:01.942Z,19.04
2023-05-21T05:33:28.844Z,19.04
2023-05-21T05:35:55.893Z,19.05
2023-05-21T05:38:22.748Z,19.05
2023-05-21T05:40:49.580Z,19.04
2023-05-21T05:43:16.471Z,19.05
2023-05-21T05:45:43.661Z,19.05
2023-05-21T05:48:13.790Z,19.07
2023-05-21T05:50:42.238Z,19.05
2023-05-21T05:53:09.238Z,19.05
2023-05-21T05:55:36.172Z,19.08
2023-05-21T05:58:03.248Z,19.10
2023-05-21T06:00:30.112Z,19.10
2023-05-21T06:02:59.538Z,19.11
2023-05-21T06:05:27.174Z,19.12
2023-05-21T06:07:54.063Z,19.12
2023-05-21T06:10:21.000Z,19.12
2023-05-21T06:12:47.901Z,19.13
2023-05-21T06:15:16.545Z,19.12
2023-05-21T06:17:44.381Z,19.13
2023-05-21T06:20:12.947Z,19.14
2023-05-21T06:22:40.001Z,19.14
2023-05-21T06:25:08.800Z,19.14
2023-05-21T06:27:35.662Z,19.15
2023-05-21T06:30:04.674Z,19.14
2023-05-21T06:32:31.792Z,19.15
2023-05-21T06:34:58.838Z,19.15
2023-05-21T06:37:26.745Z,19.17
2023-05-21T06:39:54.059Z,19.17
2023-05-21T06:42:21.461Z,19.17
2023-05-21T06:45:13.967Z,19.18
2023-05-21T06:47:43.783Z,19.17
2023-05-21T06:50:10.857Z,19.18
2023-05-21T06:52:37.839Z,19.18
2023-05-21T06:55:05.040Z,19.17
2023-05-21T06:57:49.642Z,19.17
2023-05-21T07:00:16.451Z,19.18
2023-05-21T07:02:43.191Z,19.18
2023-05-21T07:05:10.206Z,19.16
2023-05-21T07:07:36.977Z,19.16
2023-05-21T07:10:04.104Z,19.14
2023-05-21T07:12:31.365Z,19.15
2023-05-21T07:14:59.351Z,19.16
2023-05-21T07:17:26.893Z,19.17
2023-05-21T07:19:53.886Z,19.17
2023-05-21T07:22:21.047Z,19.16
2023-05-21T07:24:47.932Z,19.16
2023-05-21T07:27:25.191Z,19.16
2023-05-21T07:29:54.709Z,19.15
2023-05-21T07:32:21.996Z,19.16
2023-05-21T07:34:49.106Z,19.18
2023-05-21T07:37:16.195Z,19.18
2023-05-21T07:39:42.994Z,19.19
2023-05-21T07:42:12.146Z,19.20
2023-05-21T07:44:39.112Z,19.23
2023-05-21T07:47:07.040Z,19.22
2023-05-21T07:49:34.782Z,19.22
2023-05-21T07:52:02.190Z,19.21
2023-05-21T07:54:29.674Z,19.22
2023-05-21T07:56:57.590Z,19.25
2023-05-21T07:59:42.891Z,19.24
2023-05-21T08:02:11.100Z,19.23
2023-05-21T08:04:40.939Z,19.22
2023-05-21T08:07:10.781Z,19.25
2023-05-21T08:09:37.760Z,19.25
2023-05-21T08:12:04.918Z,19.26
2023-05-21T08:14:32.155Z,19.26
2023-05-21T08:16:59.850Z,19.26
2023-05-21T08:19:26.552Z,19.27
2023-05-21T08:21:53.508Z,19.28
2023-05-21T08:24:22.093Z,19.29
2023-05-21T08:26:50.689Z,19.29
2023-05-21T08:29:18.608Z,19.28
2023-05-21T08:31:45.929Z,19.30
2023-05-21T08:34:12.741Z,19.31
2023-05-21T08:36:47.924Z,19.31
2023-05-21T08:39:34.893Z,19.31
2023-05-21T08:42:12.119Z,19.32
2023-05-21T08:44:46.586Z,19.31
2023-05-21T08:47:16.749Z,19.33
2023-05-21T08:49:45.516Z,19.34
2023-05-21T08:52:13.231Z,19.33
2023-05-21T08:54:39.991Z,19.34
2023-05-21T08:57:07.649Z,19.33
2023-05-21T08:59:36.938Z,19.37
2023-05-21T09:02:08.731Z,19.37
2023-05-21T09:04:38.913Z,19.37
2023-05-21T09:07:08.053Z,19.37
2023-05-21T09:09:59.723Z,19.36
2023-05-21T09:12:28.026Z,19.37
2023-05-21T09:14:58.958Z,19.37
2023-05-21T09:17:30.536Z,19.36
2023-05-21T09:20:10.537Z,19.38
2023-05-21T09:22:40.872Z,19.40
2023-05-21T09:25:09.117Z,19.38
2023-05-21T09:27:36.453Z,19.39
2023-05-21T09:30:10.954Z,19.38
2023-05-21T09:32:39.016Z,19.39
2023-05-21T09:35:14.453Z,19.38
2023-05-21T09:37:45.278Z,19.41
2023-05-21T09:40:17.009Z,19.38
2023-05-21T09:42:49.134Z,19.39
2023-05-21T09:45:19.799Z,19.39
2023-05-21T09:47:48.631Z,19.39
2023-05-21T09:50:29.486Z,19.40
2023-05-21T09:52:56.422Z,19.40
2023-05-21T09:55:24.660Z,19.39
2023-05-21T09:57:52.925Z,19.40
2023-05-21T10:00:21.389Z,19.42
2023-05-21T10:02:50.003Z,19.43
2023-05-21T10:05:17.623Z,19.42
2023-05-21T10:07:53.603Z,19.43
2023-05-21T10:10:22.787Z,19.44
2023-05-21T10:12:56.546Z,19.44
2023-05-21T10:15:25.345Z,19.46
2023-05-21T10:17:52.853Z,19.48
2023-05-21T10:20:20.932Z,19.48
2023-05-21T10:22:47.955Z,19.48
2023-05-21T10:25:15.714Z,19.51
2023-05-21T10:27:42.710Z,19.50
2023-05-21T10:30:10.214Z,19.50
2023-05-21T10:32:41.966Z,19.51
2023-05-21T10:35:09.898Z,19.52
2023-05-21T10:37:36.805Z,19.53
2023-05-21T10:40:04.529Z,19.55
2023-05-21T10:42:31.167Z,19.55
2023-05-21T10:45:09.735Z,19.55
2023-05-21T10:48:08.592Z,19.57
2023-05-21T10:50:35.637Z,19.59
2023-05-21T10:53:05.293Z,19.59
2023-05-21T10:56:13.094Z,19.59
2023-05-21T10:59:04.181Z,19.60
2023-05-21T11:01:35.624Z,19.61
2023-05-21T11:04:04.142Z,19.61
2023-05-21T11:06:31.253Z,19.63
2023-05-21T11:09:02.399Z,19.64
2023-05-21T11:11:50.908Z,19.65
2023-05-21T11:14:39.180Z,19.67
2023-05-21T11:17:09.102Z,19.69
2023-05-21T11:19:47.405Z,19.71
2023-05-21T11:22:21.726Z,19.69
2023-05-21T11:24:51.054Z,19.70
2023-05-21T11:27:38.346Z,19.72
2023-05-21T11:30:06.676Z,19.73
2023-05-21T11:32:40.539Z,19.74
2023-05-21T11:35:08.116Z,19.76
2023-05-21T11:37:35.290Z,19.78
2023-05-21T11:40:37.697Z,19.79
2023-05-21T11:43:04.720Z,19.81
2023-05-21T11:45:33.168Z,19.82
2023-05-21T11:48:00.647Z,19.85
2023-05-21T11:50:30.577Z,19.86
2023-05-21T11:52:59.835Z,19.87
2023-05-21T11:55:27.189Z,19.87
2023-05-21T11:57:55.354Z,19.87
2023-05-21T12:00:23.125Z,19.89
2023-05-21T12:02:54.358Z,19.92
2023-05-21T12:05:21.812Z,19.92
2023-05-21T12:07:52.267Z,19.95
2023-05-21T12:10:23.000Z,19.94
2023-05-21T12:12:54.893Z,19.99
2023-05-21T12:15:24.734Z,20.01
2023-05-21T12:17:53.114Z,20.02
2023-05-21T12:20:20.301Z,20.02
2023-05-21T12:22:49.641Z,20.04
2023-05-21T12:25:20.997Z,20.06
2023-05-21T12:27:50.995Z,20.09
2023-05-21T12:30:18.039Z,20.10
2023-05-21T12:32:44.833Z,20.13
2023-05-21T12:35:21.886Z,20.12
2023-05-21T12:37:50.706Z,20.13
2023-05-21T12:40:18.257Z,20.14
2023-05-21T12:42:45.490Z,20.16
2023-05-21T12:45:12.643Z,20.16
2023-05-21T12:47:39.418Z,20.17
2023-05-21T12:50:12.393Z,20.17
2023-05-21T12:52:40.765Z,20.18
2023-05-21T12:55:09.510Z,20.20
2023-05-21T12:57:41.434Z,20.23
2023-05-21T13:00:09.001Z,20.24
2023-05-21T13:02:39.717Z,20.25
2023-05-21T13:05:11.266Z,20.28
2023-05-21T13:07:39.482Z,20.27
2023-05-21T13:10:07.492Z,20.28
2023-05-21T13:12:36.096Z,20.29
2023-05-21T13:15:04.704Z,20.30
2023-05-21T13:17:31.591Z,20.31
2023-05-21T13:20:18.345Z,20.31
2023-05-21T13:22:49.999Z,20.33
2023-05-21T13:25:25.327Z,20.37
2023-05-21T13:27:53.307Z,20.34
2023-05-21T13:30:21.816Z,20.38
2023-05-21T13:32:48.997Z,20.39
2023-05-21T13:35:16.914Z,20.42
2023-05-21T13:37:44.485Z,20.43
2023-05-21T13:40:14.590Z,20.44
2023-05-21T13:42:42.019Z,20.45
2023-05-21T13:45:11.012Z,20.46
2023-05-21T13:47:40.146Z,20.46
2023-05-21T13:50:08.583Z,20.48
2023-05-21T13:52:35.967Z,20.49
2023-05-21T13:55:02.918Z,20.51
2023-05-21T13:57:30.937Z,20.53
2023-05-21T13:59:59.606Z,20.53
2023-05-21T14:02:26.877Z,20.53
2023-05-21T14:04:54.022Z,20.56
2023-05-21T14:07:22.231Z,20.55
2023-05-21T14:09:49.529Z,20.59
2023-05-21T14:12:16.987Z,20.58
2023-05-21T14:14:44.026Z,20.62
2023-05-21T14:17:10.767Z,20.62
2023-05-21T14:19:37.619Z,20.61
2023-05-21T14:22:04.691Z,20.63
2023-05-21T14:24:31.588Z,20.61
2023-05-21T14:26:58.572Z,20.63
2023-05-21T14:29:25.420Z,20.63
2023-05-21T14:31:52.366Z,20.66
2023-05-21T14:34:19.329Z,20.68
2023-05-21T14:36:46.282Z,20.69
2023-05-21T14:39:13.187Z,20.71
2023-05-21T14:41:40.082Z,20.71
2023-05-21T14:44:06.953Z,20.71
2023-05-21T14:46:33.866Z,20.73
2023-05-21T14:49:01.027Z,20.73
2023-05-21T14:51:27.993Z,20.78
2023-05-21T14:53:55.774Z,20.80
2023-05-21T14:56:23.528Z,20.82
2023-05-21T14:58:50.215Z,20.83
2023-05-21T15:01:17.077Z,20.84
2023-05-21T15:03:44.049Z,20.87
2023-05-21T15:06:12.002Z,20.88
2023-05-21T15:08:38.829Z,20.89
2023-05-21T15:11:07.647Z,20.92
2023-05-21T15:13:34.368Z,20.92
2023-05-21T15:16:01.131Z,20.92
2023-05-21T15:18:29.289Z,20.93
2023-05-21T15:20:56.286Z,20.96
2023-05-21T15:23:22.991Z,20.97
2023-05-21T15:25:49.780Z,21.00
2023-05-21T15:28:16.993Z,20.99
2023-05-21T15:30:43.818Z,21.01
2023-05-21T15:33:11.492Z,21.01
2023-05-21T15:35:38.623Z,20.99
2023-05-21T15:38:05.858Z,21.00
2023-05-21T15:40:32.708Z,21.01
2023-05-21T15:42:59.545Z,21.02
2023-05-21T15:45:26.382Z,21.03
2023-05-21T15:47:53.086Z,21.06
2023-05-21T15:50:20.076Z,21.06
2023-05-21T15:52:47.003Z,21.07
2023-05-21T15:55:14.345Z,21.08
2023-05-21T15:57:41.252Z,21.09
2023-05-21T16:00:09.397Z,21.09
2023-05-21T16:02:36.753Z,21.10
2023-05-21T16:05:03.806Z,21.11
2023-05-21T16:07:30.539Z,21.12
2023-05-21T16:09:57.301Z,21.14
2023-05-21T16:12:24.075Z,21.15
2023-05-21T16:14:50.892Z,21.15
2023-05-21T16:17:19.670Z,21.17
2023-05-21T16:19:47.594Z,21.19
2023-05-21T16:22:14.706Z,21.21
2023-05-21T16:24:41.601Z,21.23
2023-05-21T16:27:08.320Z,21.25
2023-05-21T16:29:35.408Z,21.25
2023-05-21T16:32:02.144Z,21.27
2023-05-21T16:34:29.005Z,21.28
2023-05-21T16:36:55.965Z,21.29
2023-05-21T16:39:22.719Z,21.29
2023-05-21T16:41:49.390Z,21.29
2023-05-21T16:44:16.274Z,21.30
2023-05-21T16:46:43.167Z,21.28
2023-05-21T16:49:09.742Z,21.28
2023-05-21T16:51:36.665Z,21.27
2023-05-21T16:54:04.885Z,21.25
2023-05-21T16:56:31.908Z,21.26
2023-05-21T16:58:58.795Z,21.26
2023-05-21T17:01:25.986Z,21.27
2023-05-21T17:03:53.472Z,21.28
2023-05-21T17:06:20.507Z,21.29
2023-05-21T17:08:47.393Z,21.31
2023-05-21T17:11:14.188Z,21.33
2023-05-21T17:13:41.834Z,21.33
2023-05-21T17:16:08.589Z,21.33
2023-05-21T17:18:35.452Z,21.36
2023-05-21T17:21:02.220Z,21.36
2023-05-21T17:23:29.123Z,21.38
2023-05-21T17:25:55.959Z,21.36
2023-05-21T17:28:22.821Z,21.33
2023-05-21T17:30:49.885Z,21.35
2023-05-21T17:33:16.938Z,21.33
2023-05-21T17:35:44.013Z,21.33
2023-05-21T17:38:10.973Z,21.34
2023-05-21T17:40:37.875Z,21.34
2023-05-21T17:43:05.028Z,21.33
2023-05-21T17:45:32.140Z,21.33
2023-05-21T17:48:00.561Z,21.33
2023-05-21T17:50:28.182Z,21.32
2023-05-21T17:52:55.049Z,21.32
2023-05-21T17:55:21.712Z,21.32
2023-05-21T17:57:48.498Z,21.31
2023-05-21T18:00:15.475Z,21.31
2023-05-21T18:02:42.479Z,21.31
2023-05-21T18:05:09.533Z,21.31
2023-05-21T18:07:37.375Z,21.31
2023-05-21T18:10:04.525Z,21.31
2023-05-21T18:12:31.253Z,21.30
2023-05-21T18:14:58.054Z,21.31
2023-05-21T18:17:24.900Z,21.31
2023-05-21T18:19:51.688Z,21.31
2023-05-21T18:22:18.597Z,21.31
2023-05-21T18:24:46.257Z,21.30
2023-05-21T18:27:13.583Z,21.32
2023-05-21T18:29:40.481Z,21.31
2023-05-21T18:32:07.891Z,21.31
2023-05-21T18:34:34.929Z,21.31
2023-05-21T18:37:01.826Z,21.33
2023-05-21T18:39:28.817Z,21.32
2023-05-21T18:42:11.465Z,21.32
2023-05-21T18:44:40.110Z,21.32
2023-05-21T18:47:07.770Z,21.33
2023-05-21T18:49:36.111Z,21.33
2023-05-21T18:52:04.059Z,21.33
2023-05-21T18:54:31.371Z,21.33
2023-05-21T18:57:01.285Z,21.32
2023-05-21T18:59:31.403Z,21.33
2023-05-21T19:01:58.327Z,21.33
2023-05-21T19:04:25.147Z,21.33
2023-05-21T19:06:51.850Z,21.33
2023-05-21T19:09:18.627Z,21.33
2023-05-21T19:11:45.587Z,21.32
2023-05-21T19:14:12.355Z,21.32
2023-05-21T19:16:39.103Z,21.34
2023-05-21T19:19:06.117Z,21.32
2023-05-21T19:21:33.226Z,21.32
2023-05-21T19:24:00.167Z,21.34
2023-05-21T19:26:27.185Z,21.32
2023-05-21T19:28:54.681Z,21.31
2023-05-21T19:31:25.269Z,21.30
2023-05-21T19:33:52.555Z,21.30
2023-05-21T19:36:21.052Z,21.31
2023-05-21T19:38:48.928Z,21.31
2023-05-21T19:41:16.702Z,21.30
2023-05-21T19:43:43.699Z,21.31
2023-05-21T19:46:11.296Z,21.30
2023-05-21T19:48:38.319Z,21.30
2023-05-21T19:51:05.144Z,21.29
2023-05-21T19:53:31.825Z,21.31
2023-05-21T19:55:58.559Z,21.30
2023-05-21T19:58:27.018Z,21.29
2023-05-21T20:00:58.416Z,21.30
2023-05-21T20:03:26.754Z,21.28
2023-05-21T20:05:53.917Z,21.30
2023-05-21T20:08:21.223Z,21.28
2023-05-21T20:10:50.574Z,21.28
2023-05-21T20:13:18.549Z,21.28
2023-05-21T20:15:45.669Z,21.27
2023-05-21T20:18:12.953Z,21.26
2023-05-21T20:20:41.347Z,21.25
2023-05-21T20:23:09.003Z,21.27
2023-05-21T20:25:35.890Z,21.25
2023-05-21T20:28:03.639Z,21.25
2023-05-21T20:30:35.138Z,21.25
2023-05-21T20:33:03.015Z,21.23
2023-05-21T20:35:30.613Z,21.24
2023-05-21T20:37:57.644Z,21.25
2023-05-21T20:40:24.431Z,21.24
2023-05-21T20:42:53.478Z,21.24
2023-05-21T20:45:21.189Z,21.24
2023-05-21T20:47:48.216Z,21.23
2023-05-21T20:50:17.692Z,21.21
2023-05-21T20:52:47.281Z,21.23
2023-05-21T20:55:14.749Z,21.31
2023-05-21T20:57:42.216Z,21.29
2023-05-21T21:00:12.854Z,21.27
2023-05-21T21:02:39.773Z,21.28
2023-05-21T21:05:10.548Z,21.27
2023-05-21T21:07:37.901Z,21.26
2023-05-21T21:10:05.567Z,21.25
2023-05-21T21:12:32.426Z,21.26
2023-05-21T21:14:59.197Z,21.27
2023-05-21T21:17:25.920Z,21.25
2023-05-21T21:19:52.701Z,21.25
2023-05-21T21:22:19.760Z,21.27
2023-05-21T21:24:47.711Z,21.27
2023-05-21T21:27:14.622Z,21.27
2023-05-21T21:29:41.448Z,21.26
2023-05-21T21:32:08.277Z,21.26
2023-05-21T21:34:35.003Z,21.26
2023-05-21T21:37:01.721Z,21.26
2023-05-21T21:39:28.394Z,21.27
2023-05-21T21:41:55.433Z,21.25
2023-05-21T21:44:22.175Z,21.23
2023-05-21T21:46:48.918Z,21.23
2023-05-21T21:49:17.437Z,21.24
2023-05-21T21:51:44.866Z,21.25
2023-05-21T21:54:12.128Z,21.25
2023-05-21T21:56:38.921Z,21.24
2023-05-21T21:59:05.889Z,21.26
2023-05-21T22:01:32.691Z,21.26
2023-05-21T22:03:59.716Z,21.24
2023-05-21T22:06:27.717Z,21.26
2023-05-21T22:08:54.979Z,21.25
2023-05-21T22:11:21.977Z,21.25
2023-05-21T22:13:49.023Z,21.25
2023-05-21T22:16:16.069Z,21.25
2023-05-21T22:18:42.878Z,21.24
2023-05-21T22:21:14.056Z,21.25
2023-05-21T22:23:41.275Z,21.26
2023-05-21T22:26:08.873Z,21.25
2023-05-21T22:28:35.973Z,21.25
2023-05-21T22:31:03.126Z,21.24
2023-05-21T22:33:30.064Z,21.23
2023-05-21T22:35:56.979Z,21.25
2023-05-21T22:38:25.758Z,21.25
2023-05-21T22:40:52.806Z,21.25
2023-05-21T22:43:19.832Z,21.25
2023-05-21T22:45:47.044Z,21.26
2023-05-21T22:48:14.293Z,21.26
2023-05-21T22:50:41.704Z,21.26
2023-05-21T22:53:08.696Z,21.27
2023-05-21T22:55:35.615Z,21.27
2023-05-21T22:58:02.666Z,21.28
2023-05-21T23:00:29.617Z,21.27
2023-05-21T23:02:56.688Z,21.29
2023-05-21T23:05:23.710Z,21.32
2023-05-21T23:07:50.712Z,21.30
2023-05-21T23:10:17.589Z,21.29
2023-05-21T23:12:44.287Z,21.29
2023-05-21T23:15:11.483Z,21.30
2023-05-21T23:17:38.764Z,21.30
2023-05-21T23:20:07.248Z,21.29
2023-05-21T23:22:35.370Z,21.31
2023-05-21T23:25:02.609Z,21.31
2023-05-21T23:27:29.446Z,21.30
2023-05-21T23:29:56.437Z,21.29
2023-05-21T23:32:23.749Z,21.29
2023-05-21T23:34:50.600Z,21.31
2023-05-21T23:37:17.640Z,21.30
2023-05-21T23:39:48.154Z,21.31
2023-05-21T23:42:16.385Z,21.30
2023-05-21T23:44:43.333Z,21.32
2023-05-21T23:47:10.453Z,21.31
2023-05-21T23:49:37.390Z,21.32
2023-05-21T23:52:04.380Z,21.33
2023-05-21T23:54:31.193Z,21.32
2023-05-21T23:56:58.028Z,21.29
2023-05-21T23:59:24.922Z,21.31
